createdAt,value
2022-11-27T00:00:17.787Z,26.00
2022-11-27T00:03:41.269Z,26.10
2022-11-27T00:06:43.614Z,26.10
2022-11-27T00:09:45.446Z,26.10
2022-11-27T00:12:47.625Z,26.00
2022-11-27T00:15:49.519Z,26.10
2022-11-27T00:18:51.713Z,26.10
2022-11-27T00:21:53.562Z,26.00
2022-11-27T00:24:55.664Z,26.10
2022-11-27T00:27:57.598Z,26.10
2022-11-27T00:31:00.960Z,26.30
2022-11-27T00:34:05.628Z,26.30
2022-11-27T00:37:07.735Z,26.20
2022-11-27T00:40:10.025Z,26.20
2022-11-27T00:43:12.160Z,26.10
2022-11-27T00:46:20.075Z,26.60
2022-11-27T00:49:23.820Z,26.10
2022-11-27T00:52:25.586Z,26.20
2022-11-27T00:55:27.802Z,26.10
2022-11-27T00:58:30.605Z,26.20
2022-11-27T01:01:41.402Z,26.10
2022-11-27T01:04:46.177Z,26.20
2022-11-27T01:07:48.719Z,26.10
2022-11-27T01:10:54.875Z,26.10
2022-11-27T01:13:59.992Z,26.00
2022-11-27T01:17:02.078Z,26.00
2022-11-27T01:20:04.554Z,26.10
2022-11-27T01:23:07.418Z,26.00
2022-11-27T01:26:11.013Z,26.00
2022-11-27T01:29:13.100Z,26.00
2022-11-27T01:32:15.234Z,26.00
2022-11-27T01:35:17.106Z,26.00
2022-11-27T01:38:19.201Z,26.00
2022-11-27T01:41:32.590Z,26.00
2022-11-27T01:44:37.966Z,26.00
2022-11-27T01:47:47.994Z,25.90
2022-11-27T01:50:50.202Z,25.90
2022-11-27T01:53:54.831Z,26.00
2022-11-27T01:57:02.721Z,26.00
2022-11-27T02:00:09.077Z,26.00
2022-11-27T02:03:11.504Z,25.90
2022-11-27T02:06:14.298Z,26.00
2022-11-27T02:09:17.896Z,26.10
2022-11-27T02:12:51.578Z,26.00
2022-11-27T02:16:09.667Z,26.10
2022-11-27T02:19:21.472Z,26.10
2022-11-27T02:22:57.858Z,26.10
2022-11-27T02:26:21.092Z,26.20
2022-11-27T02:29:24.850Z,26.10
2022-11-27T02:32:37.853Z,26.10
2022-11-27T02:35:43.557Z,26.20
2022-11-27T02:39:00.033Z,26.00
2022-11-27T02:42:15.197Z,26.10
2022-11-27T02:45:25.716Z,26.10
2022-11-27T02:48:34.148Z,26.60
2022-11-27T02:51:40.402Z,26.70
2022-11-27T02:54:45.711Z,26.20
2022-11-27T02:57:52.312Z,26.30
2022-11-27T03:00:55.966Z,26.20
2022-11-27T03:03:59.862Z,26.20
2022-11-27T03:07:07.049Z,26.20
2022-11-27T03:10:23.819Z,26.30
2022-11-27T03:13:26.124Z,26.30
2022-11-27T03:16:49.486Z,26.30
2022-11-27T03:20:08.871Z,26.30
2022-11-27T03:23:10.718Z,26.20
2022-11-27T03:26:12.824Z,26.10
2022-11-27T03:29:44.358Z,26.20
2022-11-27T03:32:46.918Z,26.40
2022-11-27T03:35:49.054Z,26.40
2022-11-27T03:38:52.787Z,26.40
2022-11-27T03:42:06.450Z,26.40
2022-11-27T03:45:37.925Z,26.50
2022-11-27T03:49:06.845Z,26.40
2022-11-27T03:52:24.886Z,26.30
2022-11-27T03:55:56.852Z,26.20
2022-11-27T03:59:17.434Z,26.10
2022-11-27T04:02:31.408Z,26.30
2022-11-27T04:05:33.550Z,26.20
2022-11-27T04:08:35.381Z,26.20
2022-11-27T04:11:37.612Z,26.30
2022-11-27T04:14:39.590Z,26.20
2022-11-27T04:17:41.891Z,26.30
2022-11-27T04:20:44.118Z,26.30
2022-11-27T04:23:46.289Z,26.30
2022-11-27T04:26:48.064Z,26.20
2022-11-27T04:29:50.158Z,26.30
2022-11-27T04:32:51.970Z,26.30
2022-11-27T04:35:54.174Z,26.30
2022-11-27T04:38:56.012Z,26.30
2022-11-27T04:41:58.115Z,26.20
2022-11-27T04:45:00.048Z,26.30
2022-11-27T04:48:02.188Z,26.30
2022-11-27T04:51:04.229Z,26.40
2022-11-27T04:54:06.547Z,26.40
2022-11-27T04:57:08.406Z,26.50
2022-11-27T05:00:11.201Z,26.40
2022-11-27T05:03:13.117Z,26.50
2022-11-27T05:06:15.352Z,26.40
2022-11-27T05:09:18.065Z,26.40
2022-11-27T05:12:20.381Z,26.50
2022-11-27T05:15:22.203Z,26.50
2022-11-27T05:18:24.573Z,26.40
2022-11-27T05:21:28.580Z,26.40
2022-11-27T05:24:30.705Z,26.40
2022-11-27T05:27:32.483Z,26.30
2022-11-27T05:30:37.401Z,26.20
2022-11-27T05:33:39.378Z,26.20
2022-11-27T05:36:49.625Z,26.30
2022-11-27T05:39:51.487Z,26.30
2022-11-27T05:42:53.707Z,26.20
2022-11-27T05:45:57.719Z,26.20
2022-11-27T05:48:59.945Z,26.20
2022-11-27T05:52:01.761Z,26.30
2022-11-27T05:55:06.291Z,26.20
2022-11-27T05:58:09.776Z,26.20
2022-11-27T06:01:14.005Z,26.20
2022-11-27T06:04:15.835Z,26.20
2022-11-27T06:07:18.046Z,26.20
2022-11-27T06:10:22.195Z,26.80
2022-11-27T06:13:24.368Z,26.10
2022-11-27T06:16:26.305Z,26.60
2022-11-27T06:19:28.877Z,26.10
2022-11-27T06:22:31.451Z,26.10
2022-11-27T06:25:33.803Z,26.10
2022-11-27T06:28:35.689Z,26.10
2022-11-27T06:31:38.191Z,26.10
2022-11-27T06:34:40.300Z,26.10
2022-11-27T06:37:42.600Z,26.10
2022-11-27T06:40:44.431Z,26.10
2022-11-27T06:43:46.591Z,26.10
2022-11-27T06:46:49.307Z,26.10
2022-11-27T06:49:53.602Z,26.10
2022-11-27T06:52:55.593Z,26.10
2022-11-27T06:55:57.807Z,26.20
2022-11-27T06:59:02.059Z,26.20
2022-11-27T07:02:04.217Z,26.10
2022-11-27T07:05:06.218Z,26.00
2022-11-27T07:08:08.423Z,26.10
2022-11-27T07:11:16.577Z,26.10
2022-11-27T07:14:18.658Z,26.10
2022-11-27T07:17:22.844Z,26.30
2022-11-27T07:20:27.400Z,26.10
2022-11-27T07:23:30.665Z,26.20
2022-11-27T07:26:32.881Z,26.30
2022-11-27T07:29:34.669Z,26.30
2022-11-27T07:32:36.910Z,26.30
2022-11-27T07:35:38.705Z,26.30
2022-11-27T07:38:41.271Z,26.30
2022-11-27T07:41:44.606Z,26.40
2022-11-27T07:44:46.839Z,26.40
2022-11-27T07:47:50.032Z,26.30
2022-11-27T07:50:52.134Z,26.50
2022-11-27T07:53:54.036Z,26.40
2022-11-27T07:56:56.090Z,26.30
2022-11-27T07:59:57.881Z,26.30
2022-11-27T08:03:00.475Z,26.20
2022-11-27T08:06:02.353Z,26.30
2022-11-27T08:09:04.964Z,26.20
2022-11-27T08:12:09.819Z,26.20
2022-11-27T08:15:12.264Z,26.80
2022-11-27T08:18:14.174Z,26.30
2022-11-27T08:21:16.294Z,26.20
2022-11-27T08:24:18.117Z,26.30
2022-11-27T08:27:20.651Z,26.40
2022-11-27T08:30:23.761Z,26.50
2022-11-27T08:33:25.883Z,26.60
2022-11-27T08:36:28.441Z,26.60
2022-11-27T08:39:31.811Z,26.60
2022-11-27T08:42:33.706Z,26.50
2022-11-27T08:45:39.654Z,26.40
2022-11-27T08:48:42.018Z,26.50
2022-11-27T08:51:44.169Z,26.50
2022-11-27T08:54:46.630Z,26.60
2022-11-27T08:57:48.977Z,26.70
2022-11-27T09:00:50.811Z,26.60
2022-11-27T09:03:53.576Z,26.60
2022-11-27T09:06:58.355Z,26.50
2022-11-27T09:10:00.908Z,26.50
2022-11-27T09:13:02.698Z,26.40
2022-11-27T09:16:06.593Z,26.40
2022-11-27T09:19:08.424Z,26.30
2022-11-27T09:22:10.599Z,26.50
2022-11-27T09:25:12.647Z,26.50
2022-11-27T09:28:14.826Z,26.60
2022-11-27T09:31:19.561Z,26.60
2022-11-27T09:34:21.693Z,27.20
2022-11-27T09:37:23.478Z,26.70
2022-11-27T09:40:25.901Z,26.60
2022-11-27T09:43:31.613Z,26.40
2022-11-27T09:46:39.195Z,26.50
2022-11-27T09:49:43.591Z,26.50
2022-11-27T09:53:11.848Z,26.50
2022-11-27T09:56:17.645Z,26.40
2022-11-27T09:59:23.817Z,26.50
2022-11-27T10:02:32.075Z,26.30
2022-11-27T10:05:49.658Z,26.50
2022-11-27T10:09:17.660Z,26.60
2022-11-27T10:12:49.649Z,26.50
2022-11-27T10:16:02.076Z,26.30
2022-11-27T10:19:25.424Z,26.30
2022-11-27T10:22:51.592Z,26.20
2022-11-27T10:26:22.182Z,26.10
2022-11-27T10:29:47.237Z,26.10
2022-11-27T10:32:57.151Z,26.00
2022-11-27T10:36:01.119Z,25.90
2022-11-27T10:39:04.743Z,26.20
2022-11-27T10:42:10.656Z,26.10
2022-11-27T10:45:48.706Z,25.90
2022-11-27T10:48:50.813Z,25.80
2022-11-27T10:51:52.987Z,25.70
2022-11-27T10:55:02.258Z,25.70
2022-11-27T10:58:55.952Z,25.60
2022-11-27T11:03:00.799Z,25.70
2022-11-27T11:15:26.228Z,26.00
2022-11-27T11:18:34.792Z,25.60
2022-11-27T11:21:42.421Z,25.90
2022-11-27T11:24:51.012Z,25.70
2022-11-27T11:27:53.090Z,25.50
2022-11-27T11:31:01.727Z,25.20
2022-11-27T11:34:14.328Z,25.30
2022-11-27T11:37:29.607Z,25.00
2022-11-27T11:40:33.521Z,25.00
2022-11-27T11:43:39.585Z,25.20
2022-11-27T11:46:50.511Z,25.40
2022-11-27T11:49:54.953Z,25.20
2022-11-27T11:53:22.527Z,25.20
2022-11-27T11:56:33.009Z,25.20
2022-11-27T12:00:03.729Z,25.00
2022-11-27T12:03:39.330Z,25.30
2022-11-27T12:06:51.374Z,24.90
2022-11-27T12:10:12.228Z,24.80
2022-11-27T12:13:33.410Z,24.80
2022-11-27T12:16:36.035Z,25.00
2022-11-27T12:19:46.682Z,25.00
2022-11-27T12:23:19.416Z,25.10
2022-11-27T12:26:45.645Z,25.20
2022-11-27T12:30:17.286Z,25.10
2022-11-27T12:33:28.184Z,25.10
2022-11-27T12:37:01.464Z,25.20
2022-11-27T12:40:11.899Z,25.10
2022-11-27T12:43:26.901Z,25.20
2022-11-27T12:46:49.696Z,25.10
2022-11-27T12:50:04.621Z,25.20
2022-11-27T12:53:16.761Z,25.40
2022-11-27T12:56:43.404Z,25.30
2022-11-27T13:00:01.959Z,25.20
2022-11-27T13:03:42.007Z,25.30
2022-11-27T13:07:05.663Z,25.30
2022-11-27T13:10:23.957Z,25.50
2022-11-27T13:13:31.464Z,25.40
2022-11-27T13:16:45.662Z,25.50
2022-11-27T13:19:50.143Z,25.60
2022-11-27T13:22:52.357Z,25.80
2022-11-27T13:25:57.029Z,25.90
2022-11-27T13:29:02.629Z,25.70
2022-11-27T13:32:06.550Z,25.80
2022-11-27T13:35:28.490Z,26.00
2022-11-27T13:38:34.253Z,26.40
2022-11-27T13:41:43.747Z,25.90
2022-11-27T13:44:56.479Z,26.00
2022-11-27T13:48:01.273Z,26.00
2022-11-27T13:51:05.797Z,26.10
2022-11-27T13:54:13.561Z,26.10
2022-11-27T13:57:17.128Z,26.10
2022-11-27T14:00:40.720Z,26.00
2022-11-27T14:03:44.637Z,26.10
2022-11-27T14:07:07.982Z,26.10
2022-11-27T14:10:22.228Z,26.10
2022-11-27T14:13:34.528Z,26.30
2022-11-27T14:16:39.020Z,26.40
2022-11-27T14:19:45.172Z,26.30
2022-11-27T14:26:15.957Z,26.20
2022-11-27T14:29:20.924Z,26.10
2022-11-27T14:32:23.103Z,26.00
2022-11-27T14:35:27.561Z,26.10
2022-11-27T14:38:31.603Z,26.00
2022-11-27T14:41:33.641Z,25.90
2022-11-27T14:44:35.803Z,25.90
2022-11-27T14:47:40.825Z,25.80
2022-11-27T14:50:43.035Z,25.80
2022-11-27T14:53:47.651Z,25.80
2022-11-27T14:56:50.270Z,25.90
2022-11-27T15:00:05.148Z,25.90
2022-11-27T15:03:09.270Z,25.90
2022-11-27T15:06:19.542Z,26.00
2022-11-27T15:09:31.887Z,25.90
2022-11-27T15:12:39.271Z,25.90
2022-11-27T15:15:44.817Z,25.90
2022-11-27T15:18:57.730Z,25.90
2022-11-27T15:21:59.932Z,26.00
2022-11-27T15:25:07.225Z,25.80
2022-11-27T15:28:50.797Z,25.80
2022-11-27T15:31:53.068Z,25.70
2022-11-27T15:34:55.293Z,25.70
2022-11-27T15:38:03.704Z,25.80
2022-11-27T15:41:05.888Z,25.80
2022-11-27T15:44:09.122Z,25.70
2022-11-27T15:47:32.013Z,25.80
2022-11-27T15:50:33.873Z,25.80
2022-11-27T15:53:35.933Z,25.80
2022-11-27T15:56:37.792Z,25.70
2022-11-27T15:59:39.919Z,25.70
2022-11-27T16:02:41.793Z,25.80
2022-11-27T16:05:44.020Z,25.80
2022-11-27T16:08:45.834Z,25.90
2022-11-27T16:11:49.133Z,25.90
2022-11-27T16:14:50.946Z,25.90
2022-11-27T16:17:53.709Z,26.10
2022-11-27T16:20:55.840Z,26.10
2022-11-27T16:24:03.473Z,26.10
2022-11-27T16:27:06.699Z,26.10
2022-11-27T16:30:09.273Z,26.20
2022-11-27T16:33:11.138Z,26.10
2022-11-27T16:36:16.390Z,26.10
2022-11-27T16:39:18.358Z,26.10
2022-11-27T16:42:20.492Z,26.10
2022-11-27T16:45:22.382Z,26.10
2022-11-27T16:48:24.571Z,26.10
2022-11-27T16:51:28.953Z,26.10
2022-11-27T16:54:31.077Z,26.10
2022-11-27T16:57:32.846Z,26.00
2022-11-27T17:00:35.003Z,26.00
2022-11-27T17:03:37.553Z,25.90
2022-11-27T17:06:39.946Z,25.90
2022-11-27T17:09:42.224Z,25.90
2022-11-27T17:12:44.349Z,25.90
2022-11-27T17:15:46.262Z,25.80
2022-11-27T17:18:48.653Z,25.80
2022-11-27T17:21:50.581Z,25.80
2022-11-27T17:24:55.161Z,25.80
2022-11-27T17:27:57.144Z,25.80
2022-11-27T17:30:59.243Z,25.70
2022-11-27T17:34:01.293Z,25.70
2022-11-27T17:37:03.497Z,25.70
2022-11-27T17:40:06.141Z,25.80
2022-11-27T17:43:08.296Z,25.80
2022-11-27T17:46:27.447Z,25.80
2022-11-27T17:49:29.569Z,25.80
2022-11-27T17:52:31.431Z,25.80
2022-11-27T17:55:34.660Z,26.00
2022-11-27T17:58:37.173Z,26.00
2022-11-27T18:01:39.613Z,25.90
2022-11-27T18:04:41.642Z,26.00
2022-11-27T18:07:46.446Z,25.90
2022-11-27T18:10:49.928Z,25.80
2022-11-27T18:13:52.461Z,25.80
2022-11-27T18:16:55.364Z,25.80
2022-11-27T18:19:58.936Z,25.70
2022-11-27T18:23:00.814Z,25.80
2022-11-27T18:26:07.794Z,25.80
2022-11-27T18:29:09.782Z,25.70
2022-11-27T18:32:14.020Z,25.70
2022-11-27T18:35:16.509Z,25.80
2022-11-27T18:38:18.637Z,25.80
2022-11-27T18:41:23.955Z,25.80
2022-11-27T18:44:29.278Z,25.70
2022-11-27T18:47:32.273Z,25.70
2022-11-27T18:50:35.310Z,25.60
2022-11-27T18:53:44.860Z,25.60
2022-11-27T18:56:47.221Z,25.70
2022-11-27T18:59:49.176Z,25.60
2022-11-27T19:02:51.291Z,25.60
2022-11-27T19:05:54.665Z,25.70
2022-11-27T19:08:58.238Z,25.70
2022-11-27T19:12:00.237Z,25.70
2022-11-27T19:15:02.336Z,25.50
2022-11-27T19:18:04.241Z,25.50
2022-11-27T19:21:16.901Z,25.50
2022-11-27T19:24:18.774Z,25.50
2022-11-27T19:27:21.145Z,25.50
2022-11-27T19:30:22.955Z,25.60
2022-11-27T19:33:25.332Z,25.60
2022-11-27T19:36:30.385Z,25.50
2022-11-27T19:39:32.514Z,25.40
2022-11-27T19:42:34.624Z,25.60
2022-11-27T19:45:37.383Z,25.70
2022-11-27T19:48:39.369Z,25.50
2022-11-27T19:51:41.565Z,25.60
2022-11-27T19:54:44.409Z,25.60
2022-11-27T19:57:46.617Z,25.50
2022-11-27T20:00:48.674Z,25.70
2022-11-27T20:03:52.323Z,25.60
2022-11-27T20:06:54.170Z,25.60
2022-11-27T20:09:56.309Z,25.60
2022-11-27T20:13:02.204Z,25.60
2022-11-27T20:16:13.822Z,25.60
2022-11-27T20:19:16.008Z,25.60
2022-11-27T20:22:18.126Z,25.50
2022-11-27T20:25:20.681Z,25.40
2022-11-27T20:28:22.974Z,25.40
2022-11-27T20:31:27.695Z,25.60
2022-11-27T20:34:31.187Z,25.50
2022-11-27T20:37:33.942Z,25.60
2022-11-27T20:40:38.889Z,25.50
2022-11-27T20:43:41.470Z,25.40
2022-11-27T20:46:50.995Z,25.40
2022-11-27T20:49:54.057Z,25.30
2022-11-27T20:52:56.211Z,25.30
2022-11-27T20:56:05.792Z,25.30
2022-11-27T20:59:08.036Z,25.20
2022-11-27T21:02:11.071Z,25.30
2022-11-27T21:05:13.432Z,25.20
2022-11-27T21:08:15.376Z,25.10
2022-11-27T21:11:27.363Z,25.30
2022-11-27T21:14:29.466Z,25.30
2022-11-27T21:17:31.836Z,25.20
2022-11-27T21:20:33.866Z,25.10
2022-11-27T21:23:36.103Z,25.10
2022-11-27T21:26:38.754Z,25.00
2022-11-27T21:29:41.115Z,24.90
2022-11-27T21:32:44.403Z,25.00
2022-11-27T21:35:46.475Z,25.00
2022-11-27T21:38:48.700Z,24.90
2022-11-27T21:41:54.028Z,24.90
2022-11-27T21:44:56.350Z,24.90
2022-11-27T21:47:58.518Z,24.90
2022-11-27T21:51:04.834Z,25.00
2022-11-27T21:54:08.905Z,24.90
2022-11-27T21:57:10.907Z,24.90
2022-11-27T22:00:14.637Z,24.80
2022-11-27T22:03:17.140Z,24.70
2022-11-27T22:06:25.340Z,25.00
2022-11-27T22:09:30.279Z,24.90
2022-11-27T22:12:32.703Z,24.90
2022-11-27T22:15:37.002Z,24.50
2022-11-27T22:18:39.833Z,24.60
2022-11-27T22:21:42.107Z,24.60
2022-11-27T22:24:44.502Z,24.50
2022-11-27T22:27:46.694Z,24.60
2022-11-27T22:30:49.113Z,24.70
2022-11-27T22:33:51.301Z,24.60
2022-11-27T22:36:55.513Z,24.60
2022-11-27T22:39:57.834Z,24.50
2022-11-27T22:43:00.410Z,24.50
2022-11-27T22:46:13.996Z,24.50
2022-11-27T22:49:18.659Z,24.60
2022-11-27T22:52:20.641Z,24.70
2022-11-27T22:55:22.877Z,24.90
2022-11-27T22:58:24.714Z,24.80
2022-11-27T23:01:26.949Z,24.80
2022-11-27T23:04:28.856Z,24.80
2022-11-27T23:07:31.630Z,24.80
2022-11-27T23:10:33.485Z,24.80
2022-11-27T23:13:36.002Z,24.70
2022-11-27T23:16:39.293Z,24.60
2022-11-27T23:19:41.469Z,24.50
2022-11-27T23:22:43.253Z,24.30
2022-11-27T23:25:45.503Z,24.20
2022-11-27T23:28:49.230Z,24.20
2022-11-27T23:31:51.526Z,24.30
2022-11-27T23:34:53.517Z,24.10
2022-11-27T23:37:55.734Z,23.90
2022-11-27T23:41:09.951Z,23.80
2022-11-27T23:44:12.125Z,23.80
2022-11-27T23:47:14.173Z,23.70
2022-11-27T23:50:16.292Z,23.50
2022-11-27T23:53:20.149Z,23.50
2022-11-27T23:56:27.627Z,23.40
2022-11-27T23:59:29.431Z,23.70
